ADDS METAR Data INFO
IDs: Format: Raw Decoded Include TAF

Data at: 1907 UTC 23 Apr 2018

METAR for:TJBQ (Aquadilla/Hernandez, --, PR)
Text:TJBQ 231850Z 08013G18KT 10SM BKN019 BKN 023 OVC 030 27/22 A3001
Temperature: 27.0°C ( 81°F)
Dewpoint: 22.0°C ( 72°F) [RH = 74%]
Pressure (altimeter):30.01 inches Hg (1016.3 mb)
Winds:from the E (80 degrees) at 15 MPH (13 knots; 6.7 m/s) gusting to 21 MPH (18 knots; 9.3 m/s)
Visibility:10 or more sm (16+ km)
Ceiling:1900 feet AGL
Clouds: broken clouds at 1900 feet AGL, broken clouds at 2300 feet AGL, overcast cloud deck at 3000 feet AGL